Aérodrome :
LOGIN :

S'inscrire | Disclaimer

   EN    FR    IT 

 










Légende :    VFR   VFR Marginal   IFR   IFR Intensif   IFR Très Intensif
Visi : 
Plafond : 
>= 8 km
>= 3000ft
5 à 8 km
1000 à 3000 ft
1500m à 5 km
500 à 1000 ft
800 à 1500m
200 à 500 ft
< 800m
< 200 ft
Symboles :   Orages  Brouillard  Fortes neiges  Fortes précipitations  Vent > 20 kt
SIGMETs :   Divers  Orages  Givrage  Turbulence  Onde Orograph.  Cendres Volcan.






- Altitude de l'aérodrome : 359 ft
- Code IATA : BVA


LFOB - Beauvais

DERNIER METAR :
  • 072100Z AUTO 22010KT 9999 FEW025 OVC031 10/07 Q1016 TEMPO BKN011 BKN025

METARs EXPIRÉS :
  • 072030Z AUTO 20008KT 9999 OVC031 09/07 Q1016 TEMPO BKN011 BKN025
  • 072000Z AUTO 20008KT 9999 FEW025 OVC034 09/07 Q1017 NOSIG
  • 071930Z AUTO 20008KT 9999 FEW024 OVC033 09/07 Q1017 NOSIG
  • 071900Z AUTO 20006KT 9999 FEW025 OVC035 09/07 Q1017 NOSIG
  • 071830Z AUTO 21006KT 9999 OVC035 10/07 Q1017 NOSIG
  • 071800Z AUTO 21006KT 9999 OVC035 10/07 Q1017 NOSIG

TAF TAF LFOB
Valide du 07 à 18h jusqu'au 08 à 18h UTC


071700Z 0718/0818 22008KT 9999 BKN035
PROB40
TEMPO 0722/0802 BKN011 BKN025
BECMG 0802/0804 22018KT BKN011
TEMPO 0806/0811 22020G30KT 4000 RA BKN007 OVC011
FM081100 26020KT 9999 SCT030
TEMPO 0811/0818 26020G30KT
ATIS : +33 3 44 11 49 28



MET'MAP, la Météo Aéronautique d'un coup d'oeil ! - Copyright ORBIFLY Décembre 2007 - Disclaimer

ORBIFLY MET'MAP TEAM :

Programmation & Développement : Alexandra Zaïnal
Sur une idée originale de : Baudouin d'Aumeries
Assistance à la programmation : Marc-Olivier Méhu
Soutien technique & logistique : Manuel Goepfert

Contact : metmap@orbifly.com




SOURCES & CREDITS :

   NOAA